sensor_id;sensor_type;location;lat;lon;timestamp;P1;durP1;ratioP1;P2;durP2;ratioP2
13685;SDS011;6915;48.296;8.874;2023-08-01T00:48:54;3.08;;;2.75;;
13685;SDS011;6915;48.296;8.874;2023-08-01T00:51:25;5.90;;;2.92;;
13685;SDS011;6915;48.296;8.874;2023-08-01T01:22:24;4.97;;;3.03;;
13685;SDS011;6915;48.296;8.874;2023-08-01T01:24:53;4.05;;;3.28;;
13685;SDS011;6915;48.296;8.874;2023-08-01T01:27:24;4.18;;;3.05;;
13685;SDS011;6915;48.296;8.874;2023-08-01T01:29:53;3.08;;;2.88;;
13685;SDS011;6915;48.296;8.874;2023-08-01T01:32:23;3.33;;;3.08;;
13685;SDS011;6915;48.296;8.874;2023-08-01T01:34:53;3.88;;;2.97;;
13685;SDS011;6915;48.296;8.874;2023-08-01T01:37:21;4.70;;;3.10;;
13685;SDS011;6915;48.296;8.874;2023-08-01T01:39:50;5.47;;;3.20;;
13685;SDS011;6915;48.296;8.874;2023-08-01T01:42:19;3.15;;;2.83;;
13685;SDS011;6915;48.296;8.874;2023-08-01T01:44:47;3.63;;;2.90;;
13685;SDS011;6915;48.296;8.874;2023-08-01T01:47:16;5.03;;;2.88;;
13685;SDS011;6915;48.296;8.874;2023-08-01T01:49:45;3.38;;;3.00;;
13685;SDS011;6915;48.296;8.874;2023-08-01T01:52:14;3.13;;;2.83;;
13685;SDS011;6915;48.296;8.874;2023-08-01T01:54:44;3.58;;;2.95;;
13685;SDS011;6915;48.296;8.874;2023-08-01T01:57:13;3.38;;;3.08;;
13685;SDS011;6915;48.296;8.874;2023-08-01T01:59:41;3.35;;;3.00;;
13685;SDS011;6915;48.296;8.874;2023-08-01T02:02:11;3.50;;;3.20;;
13685;SDS011;6915;48.296;8.874;2023-08-01T02:04:40;3.30;;;2.97;;
13685;SDS011;6915;48.296;8.874;2023-08-01T02:07:09;4.15;;;3.03;;
13685;SDS011;6915;48.296;8.874;2023-08-01T02:09:39;3.67;;;3.00;;
13685;SDS011;6915;48.296;8.874;2023-08-01T02:12:09;4.85;;;3.17;;
13685;SDS011;6915;48.296;8.874;2023-08-01T02:14:39;3.80;;;3.20;;
13685;SDS011;6915;48.296;8.874;2023-08-01T02:17:08;4.55;;;3.25;;
13685;SDS011;6915;48.296;8.874;2023-08-01T02:19:36;3.35;;;3.03;;
13685;SDS011;6915;48.296;8.874;2023-08-01T02:22:05;3.83;;;3.38;;
13685;SDS011;6915;48.296;8.874;2023-08-01T02:24:34;3.45;;;3.15;;
13685;SDS011;6915;48.296;8.874;2023-08-01T02:27:03;4.93;;;3.38;;
13685;SDS011;6915;48.296;8.874;2023-08-01T02:29:33;3.92;;;3.17;;
13685;SDS011;6915;48.296;8.874;2023-08-01T02:32:01;4.30;;;3.30;;
13685;SDS011;6915;48.296;8.874;2023-08-01T02:34:32;3.72;;;3.20;;
13685;SDS011;6915;48.296;8.874;2023-08-01T02:37:01;3.97;;;3.58;;
13685;SDS011;6915;48.296;8.874;2023-08-01T02:39:29;4.68;;;3.22;;
13685;SDS011;6915;48.296;8.874;2023-08-01T02:41:58;3.55;;;3.00;;
13685;SDS011;6915;48.296;8.874;2023-08-01T02:44:27;4.07;;;3.10;;
13685;SDS011;6915;48.296;8.874;2023-08-01T02:46:57;4.43;;;3.35;;
13685;SDS011;6915;48.296;8.874;2023-08-01T02:49:26;3.70;;;3.17;;
13685;SDS011;6915;48.296;8.874;2023-08-01T02:51:55;4.40;;;2.97;;
13685;SDS011;6915;48.296;8.874;2023-08-01T02:54:23;4.35;;;3.33;;
13685;SDS011;6915;48.296;8.874;2023-08-01T02:56:52;4.63;;;3.33;;
13685;SDS011;6915;48.296;8.874;2023-08-01T02:59:20;4.15;;;3.10;;
13685;SDS011;6915;48.296;8.874;2023-08-01T03:01:49;4.90;;;2.88;;
13685;SDS011;6915;48.296;8.874;2023-08-01T03:04:19;4.57;;;3.30;;
13685;SDS011;6915;48.296;8.874;2023-08-01T03:06:47;3.80;;;3.15;;
13685;SDS011;6915;48.296;8.874;2023-08-01T03:09:16;3.33;;;3.03;;
13685;SDS011;6915;48.296;8.874;2023-08-01T03:11:44;5.68;;;3.35;;
13685;SDS011;6915;48.296;8.874;2023-08-01T03:14:13;3.72;;;2.88;;
13685;SDS011;6915;48.296;8.874;2023-08-01T03:16:45;4.95;;;3.22;;
13685;SDS011;6915;48.296;8.874;2023-08-01T03:19:39;4.53;;;3.17;;
13685;SDS011;6915;48.296;8.874;2023-08-01T03:22:15;5.18;;;3.30;;
13685;SDS011;6915;48.296;8.874;2023-08-01T03:25:16;4.32;;;3.10;;
13685;SDS011;6915;48.296;8.874;2023-08-01T03:28:11;6.60;;;3.15;;
13685;SDS011;6915;48.296;8.874;2023-08-01T03:31:03;3.72;;;2.92;;
13685;SDS011;6915;48.296;8.874;2023-08-01T03:36:35;5.38;;;3.05;;
13685;SDS011;6915;48.296;8.874;2023-08-01T03:39:07;4.32;;;3.40;;
13685;SDS011;6915;48.296;8.874;2023-08-01T03:41:49;4.82;;;3.10;;
13685;SDS011;6915;48.296;8.874;2023-08-01T03:44:20;3.38;;;2.72;;
13685;SDS011;6915;48.296;8.874;2023-08-01T03:46:49;5.20;;;3.20;;
13685;SDS011;6915;48.296;8.874;2023-08-01T03:49:18;6.70;;;3.05;;
13685;SDS011;6915;48.296;8.874;2023-08-01T03:51:48;5.40;;;3.00;;
13685;SDS011;6915;48.296;8.874;2023-08-01T03:54:17;3.40;;;3.10;;
13685;SDS011;6915;48.296;8.874;2023-08-01T03:56:46;5.53;;;2.90;;
13685;SDS011;6915;48.296;8.874;2023-08-01T03:59:15;7.25;;;2.92;;
13685;SDS011;6915;48.296;8.874;2023-08-01T04:01:44;6.65;;;2.92;;
13685;SDS011;6915;48.296;8.874;2023-08-01T04:04:12;7.30;;;2.90;;
13685;SDS011;6915;48.296;8.874;2023-08-01T04:06:41;5.68;;;3.22;;
13685;SDS011;6915;48.296;8.874;2023-08-01T04:09:11;4.72;;;3.03;;
13685;SDS011;6915;48.296;8.874;2023-08-01T04:11:40;3.95;;;2.90;;
13685;SDS011;6915;48.296;8.874;2023-08-01T04:14:10;4.57;;;3.25;;
13685;SDS011;6915;48.296;8.874;2023-08-01T04:16:39;4.95;;;3.30;;
13685;SDS011;6915;48.296;8.874;2023-08-01T04:19:08;3.78;;;3.05;;
13685;SDS011;6915;48.296;8.874;2023-08-01T04:21:36;4.90;;;3.17;;
13685;SDS011;6915;48.296;8.874;2023-08-01T04:24:05;3.47;;;3.10;;
13685;SDS011;6915;48.296;8.874;2023-08-01T04:26:35;5.85;;;3.20;;
13685;SDS011;6915;48.296;8.874;2023-08-01T04:29:03;4.82;;;3.47;;
13685;SDS011;6915;48.296;8.874;2023-08-01T04:31:32;4.95;;;3.20;;
13685;SDS011;6915;48.296;8.874;2023-08-01T04:34:01;4.80;;;3.33;;
13685;SDS011;6915;48.296;8.874;2023-08-01T04:36:29;7.03;;;3.47;;
13685;SDS011;6915;48.296;8.874;2023-08-01T04:38:58;5.38;;;3.50;;
13685;SDS011;6915;48.296;8.874;2023-08-01T04:41:26;4.32;;;3.20;;
13685;SDS011;6915;48.296;8.874;2023-08-01T04:43:56;4.95;;;3.40;;
13685;SDS011;6915;48.296;8.874;2023-08-01T04:46:25;4.43;;;3.38;;
13685;SDS011;6915;48.296;8.874;2023-08-01T04:48:54;5.35;;;3.28;;
13685;SDS011;6915;48.296;8.874;2023-08-01T04:51:22;6.10;;;3.50;;
13685;SDS011;6915;48.296;8.874;2023-08-01T04:53:51;3.80;;;2.92;;
13685;SDS011;6915;48.296;8.874;2023-08-01T04:56:21;3.90;;;2.92;;
13685;SDS011;6915;48.296;8.874;2023-08-01T04:58:50;5.70;;;3.30;;
13685;SDS011;6915;48.296;8.874;2023-08-01T05:01:20;5.80;;;3.45;;
13685;SDS011;6915;48.296;8.874;2023-08-01T05:03:48;5.22;;;3.25;;
13685;SDS011;6915;48.296;8.874;2023-08-01T05:06:17;5.72;;;3.55;;
13685;SDS011;6915;48.296;8.874;2023-08-01T05:08:46;5.68;;;3.45;;
13685;SDS011;6915;48.296;8.874;2023-08-01T05:11:15;4.82;;;3.33;;
13685;SDS011;6915;48.296;8.874;2023-08-01T05:13:43;3.67;;;3.17;;
13685;SDS011;6915;48.296;8.874;2023-08-01T05:16:12;3.80;;;3.20;;
13685;SDS011;6915;48.296;8.874;2023-08-01T05:18:42;5.53;;;3.28;;
13685;SDS011;6915;48.296;8.874;2023-08-01T05:21:10;3.17;;;2.97;;
13685;SDS011;6915;48.296;8.874;2023-08-01T05:23:41;3.05;;;2.78;;
13685;SDS011;6915;48.296;8.874;2023-08-01T05:26:09;3.67;;;3.13;;
13685;SDS011;6915;48.296;8.874;2023-08-01T05:28:38;3.00;;;2.65;;
13685;SDS011;6915;48.296;8.874;2023-08-01T05:31:06;3.88;;;3.00;;
13685;SDS011;6915;48.296;8.874;2023-08-01T05:33:35;3.40;;;3.10;;
13685;SDS011;6915;48.296;8.874;2023-08-01T05:36:05;4.10;;;3.30;;
13685;SDS011;6915;48.296;8.874;2023-08-01T05:38:34;3.97;;;3.20;;
13685;SDS011;6915;48.296;8.874;2023-08-01T05:41:02;4.45;;;3.60;;
13685;SDS011;6915;48.296;8.874;2023-08-01T05:43:31;19.17;;;4.35;;
13685;SDS011;6915;48.296;8.874;2023-08-01T05:46:00;5.90;;;4.07;;
13685;SDS011;6915;48.296;8.874;2023-08-01T05:48:28;5.75;;;4.00;;
13685;SDS011;6915;48.296;8.874;2023-08-01T05:50:57;6.43;;;4.30;;
13685;SDS011;6915;48.296;8.874;2023-08-01T05:53:27;4.63;;;4.22;;
13685;SDS011;6915;48.296;8.874;2023-08-01T05:55:56;5.88;;;4.28;;
13685;SDS011;6915;48.296;8.874;2023-08-01T05:58:24;8.82;;;4.63;;
13685;SDS011;6915;48.296;8.874;2023-08-01T06:00:53;5.40;;;4.10;;
13685;SDS011;6915;48.296;8.874;2023-08-01T06:03:22;5.30;;;4.28;;
13685;SDS011;6915;48.296;8.874;2023-08-01T06:05:51;5.70;;;4.15;;
13685;SDS011;6915;48.296;8.874;2023-08-01T06:08:19;5.97;;;3.97;;
13685;SDS011;6915;48.296;8.874;2023-08-01T06:10:49;5.65;;;4.50;;
13685;SDS011;6915;48.296;8.874;2023-08-01T06:13:18;4.22;;;3.83;;
13685;SDS011;6915;48.296;8.874;2023-08-01T06:15:47;4.78;;;3.97;;
13685;SDS011;6915;48.296;8.874;2023-08-01T06:18:15;4.30;;;3.90;;
13685;SDS011;6915;48.296;8.874;2023-08-01T06:20:44;6.00;;;3.92;;
13685;SDS011;6915;48.296;8.874;2023-08-01T06:23:13;4.72;;;3.78;;
13685;SDS011;6915;48.296;8.874;2023-08-01T06:25:41;4.65;;;3.55;;
13685;SDS011;6915;48.296;8.874;2023-08-01T06:28:11;4.88;;;3.90;;
13685;SDS011;6915;48.296;8.874;2023-08-01T06:30:40;6.60;;;3.75;;
13685;SDS011;6915;48.296;8.874;2023-08-01T06:33:09;3.97;;;3.65;;
13685;SDS011;6915;48.296;8.874;2023-08-01T06:35:38;4.05;;;3.28;;
13685;SDS011;6915;48.296;8.874;2023-08-01T06:38:06;4.03;;;3.63;;
13685;SDS011;6915;48.296;8.874;2023-08-01T06:40:35;6.38;;;3.35;;
13685;SDS011;6915;48.296;8.874;2023-08-01T06:43:03;5.43;;;3.70;;
13685;SDS011;6915;48.296;8.874;2023-08-01T06:45:33;5.53;;;4.03;;
13685;SDS011;6915;48.296;8.874;2023-08-01T06:48:02;5.15;;;3.70;;
13685;SDS011;6915;48.296;8.874;2023-08-01T06:50:30;4.40;;;3.90;;
13685;SDS011;6915;48.296;8.874;2023-08-01T06:52:59;6.28;;;4.18;;
13685;SDS011;6915;48.296;8.874;2023-08-01T06:55:27;5.57;;;4.20;;
13685;SDS011;6915;48.296;8.874;2023-08-01T06:57:56;5.82;;;4.15;;
13685;SDS011;6915;48.296;8.874;2023-08-01T07:00:24;4.88;;;4.00;;
13685;SDS011;6915;48.296;8.874;2023-08-01T07:02:54;4.70;;;3.90;;
13685;SDS011;6915;48.296;8.874;2023-08-01T07:05:23;6.55;;;4.32;;
13685;SDS011;6915;48.296;8.874;2023-08-01T07:07:52;4.40;;;3.90;;
13685;SDS011;6915;48.296;8.874;2023-08-01T07:10:22;5.57;;;4.00;;
13685;SDS011;6915;48.296;8.874;2023-08-01T07:12:51;6.35;;;3.88;;
13685;SDS011;6915;48.296;8.874;2023-08-01T07:15:19;4.85;;;4.20;;
13685;SDS011;6915;48.296;8.874;2023-08-01T07:17:48;4.00;;;3.60;;
13685;SDS011;6915;48.296;8.874;2023-08-01T07:20:18;4.65;;;3.75;;
13685;SDS011;6915;48.296;8.874;2023-08-01T07:22:46;5.18;;;4.30;;
13685;SDS011;6915;48.296;8.874;2023-08-01T07:25:15;6.35;;;4.03;;
13685;SDS011;6915;48.296;8.874;2023-08-01T07:27:44;4.65;;;3.63;;
13685;SDS011;6915;48.296;8.874;2023-08-01T07:30:12;4.15;;;3.70;;
13685;SDS011;6915;48.296;8.874;2023-08-01T07:32:41;4.20;;;3.58;;
13685;SDS011;6915;48.296;8.874;2023-08-01T07:35:12;4.28;;;3.38;;
13685;SDS011;6915;48.296;8.874;2023-08-01T07:37:42;4.78;;;3.60;;
13685;SDS011;6915;48.296;8.874;2023-08-01T07:40:11;4.22;;;3.50;;
13685;SDS011;6915;48.296;8.874;2023-08-01T07:42:40;3.80;;;3.20;;
13685;SDS011;6915;48.296;8.874;2023-08-01T07:45:09;4.93;;;3.55;;
13685;SDS011;6915;48.296;8.874;2023-08-01T07:47:38;5.43;;;3.38;;
13685;SDS011;6915;48.296;8.874;2023-08-01T07:50:07;3.95;;;3.30;;
13685;SDS011;6915;48.296;8.874;2023-08-01T07:52:35;3.42;;;3.08;;
13685;SDS011;6915;48.296;8.874;2023-08-01T07:55:06;4.07;;;3.20;;
13685;SDS011;6915;48.296;8.874;2023-08-01T07:57:36;3.72;;;3.10;;
13685;SDS011;6915;48.296;8.874;2023-08-01T08:00:05;3.38;;;3.08;;
13685;SDS011;6915;48.296;8.874;2023-08-01T08:02:36;2.97;;;2.78;;
13685;SDS011;6915;48.296;8.874;2023-08-01T08:05:05;5.75;;;3.00;;
13685;SDS011;6915;48.296;8.874;2023-08-01T08:07:32;3.35;;;3.05;;
13685;SDS011;6915;48.296;8.874;2023-08-01T08:10:02;3.55;;;2.85;;
13685;SDS011;6915;48.296;8.874;2023-08-01T08:12:31;2.95;;;2.65;;
13685;SDS011;6915;48.296;8.874;2023-08-01T08:15:00;2.88;;;2.55;;
13685;SDS011;6915;48.296;8.874;2023-08-01T08:17:29;2.80;;;2.60;;
13685;SDS011;6915;48.296;8.874;2023-08-01T08:19:57;4.47;;;2.80;;
13685;SDS011;6915;48.296;8.874;2023-08-01T08:22:26;5.10;;;2.57;;
13685;SDS011;6915;48.296;8.874;2023-08-01T08:24:55;2.53;;;2.33;;
13685;SDS011;6915;48.296;8.874;2023-08-01T08:27:23;2.40;;;2.07;;
13685;SDS011;6915;48.296;8.874;2023-08-01T08:29:53;2.30;;;2.07;;
13685;SDS011;6915;48.296;8.874;2023-08-01T08:32:22;2.60;;;2.40;;
13685;SDS011;6915;48.296;8.874;2023-08-01T08:34:51;2.73;;;2.40;;
13685;SDS011;6915;48.296;8.874;2023-08-01T08:37:19;2.67;;;2.47;;
13685;SDS011;6915;48.296;8.874;2023-08-01T08:39:48;2.33;;;2.07;;
13685;SDS011;6915;48.296;8.874;2023-08-01T08:42:17;3.17;;;2.03;;
13685;SDS011;6915;48.296;8.874;2023-08-01T08:44:46;2.20;;;2.00;;
13685;SDS011;6915;48.296;8.874;2023-08-01T08:47:23;2.10;;;1.90;;
13685;SDS011;6915;48.296;8.874;2023-08-01T08:49:55;3.87;;;2.43;;
13685;SDS011;6915;48.296;8.874;2023-08-01T08:52:24;2.77;;;1.90;;
13685;SDS011;6915;48.296;8.874;2023-08-01T08:54:51;2.10;;;1.80;;
13685;SDS011;6915;48.296;8.874;2023-08-01T08:57:21;2.67;;;1.80;;
13685;SDS011;6915;48.296;8.874;2023-08-01T08:59:50;2.27;;;1.70;;
13685;SDS011;6915;48.296;8.874;2023-08-01T09:02:20;2.80;;;1.60;;
13685;SDS011;6915;48.296;8.874;2023-08-01T09:04:51;1.88;;;1.60;;
13685;SDS011;6915;48.296;8.874;2023-08-01T09:07:20;1.47;;;1.37;;
13685;SDS011;6915;48.296;8.874;2023-08-01T09:09:52;1.70;;;1.20;;
13685;SDS011;6915;48.296;8.874;2023-08-01T09:12:21;1.27;;;1.17;;
13685;SDS011;6915;48.296;8.874;2023-08-01T09:14:50;1.37;;;1.10;;
13685;SDS011;6915;48.296;8.874;2023-08-01T09:17:22;1.20;;;1.10;;
13685;SDS011;6915;48.296;8.874;2023-08-01T09:19:57;2.80;;;1.50;;
13685;SDS011;6915;48.296;8.874;2023-08-01T09:22:40;2.38;;;1.40;;
13685;SDS011;6915;48.296;8.874;2023-08-01T09:25:11;1.08;;;1.05;;
13685;SDS011;6915;48.296;8.874;2023-08-01T09:27:39;1.30;;;1.20;;
13685;SDS011;6915;48.296;8.874;2023-08-01T09:30:09;1.25;;;1.15;;
13685;SDS011;6915;48.296;8.874;2023-08-01T09:32:50;1.55;;;1.45;;
13685;SDS011;6915;48.296;8.874;2023-08-01T09:35:21;1.40;;;1.30;;
13685;SDS011;6915;48.296;8.874;2023-08-01T09:37:51;1.98;;;1.45;;
13685;SDS011;6915;48.296;8.874;2023-08-01T09:40:19;1.77;;;1.67;;
13685;SDS011;6915;48.296;8.874;2023-08-01T09:42:48;1.33;;;1.20;;
13685;SDS011;6915;48.296;8.874;2023-08-01T09:45:17;1.23;;;1.13;;
13685;SDS011;6915;48.296;8.874;2023-08-01T09:47:46;1.00;;;1.00;;
13685;SDS011;6915;48.296;8.874;2023-08-01T09:50:21;1.15;;;1.05;;
13685;SDS011;6915;48.296;8.874;2023-08-01T09:52:50;2.42;;;1.25;;
13685;SDS011;6915;48.296;8.874;2023-08-01T09:55:19;1.17;;;1.05;;
13685;SDS011;6915;48.296;8.874;2023-08-01T09:57:50;1.83;;;1.30;;
13685;SDS011;6915;48.296;8.874;2023-08-01T10:00:23;2.80;;;1.67;;
13685;SDS011;6915;48.296;8.874;2023-08-01T10:02:55;2.95;;;1.42;;
13685;SDS011;6915;48.296;8.874;2023-08-01T10:05:28;1.95;;;1.40;;
13685;SDS011;6915;48.296;8.874;2023-08-01T10:07:58;1.37;;;1.13;;
13685;SDS011;6915;48.296;8.874;2023-08-01T10:10:29;0.97;;;0.90;;
13685;SDS011;6915;48.296;8.874;2023-08-01T10:12:59;1.70;;;1.00;;
13685;SDS011;6915;48.296;8.874;2023-08-01T10:15:30;1.30;;;1.00;;
13685;SDS011;6915;48.296;8.874;2023-08-01T10:17:59;3.08;;;0.90;;
13685;SDS011;6915;48.296;8.874;2023-08-01T10:20:29;1.60;;;1.00;;
13685;SDS011;6915;48.296;8.874;2023-08-01T10:22:59;1.95;;;1.20;;
13685;SDS011;6915;48.296;8.874;2023-08-01T10:25:28;1.53;;;1.40;;
13685;SDS011;6915;48.296;8.874;2023-08-01T10:27:58;1.55;;;1.30;;
13685;SDS011;6915;48.296;8.874;2023-08-01T10:30:28;2.53;;;1.98;;
13685;SDS011;6915;48.296;8.874;2023-08-01T10:32:57;3.90;;;1.90;;
13685;SDS011;6915;48.296;8.874;2023-08-01T10:38:10;2.25;;;1.90;;
13685;SDS011;6915;48.296;8.874;2023-08-01T10:40:44;2.67;;;2.00;;
13685;SDS011;6915;48.296;8.874;2023-08-01T10:43:19;8.18;;;2.70;;
13685;SDS011;6915;48.296;8.874;2023-08-01T10:45:59;3.20;;;2.10;;
13685;SDS011;6915;48.296;8.874;2023-08-01T10:48:28;3.43;;;1.60;;
13685;SDS011;6915;48.296;8.874;2023-08-01T10:50:59;2.07;;;1.43;;
13685;SDS011;6915;48.296;8.874;2023-08-01T10:53:37;2.23;;;1.20;;
13685;SDS011;6915;48.296;8.874;2023-08-01T10:56:14;1.77;;;0.93;;
13685;SDS011;6915;48.296;8.874;2023-08-01T10:58:44;1.47;;;1.00;;
13685;SDS011;6915;48.296;8.874;2023-08-01T11:01:14;1.47;;;1.10;;
13685;SDS011;6915;48.296;8.874;2023-08-01T11:03:42;1.30;;;0.87;;
13685;SDS011;6915;48.296;8.874;2023-08-01T11:06:13;2.37;;;1.10;;
13685;SDS011;6915;48.296;8.874;2023-08-01T11:08:41;1.25;;;1.15;;
13685;SDS011;6915;48.296;8.874;2023-08-01T11:11:11;1.48;;;1.23;;
13685;SDS011;6915;48.296;8.874;2023-08-01T11:13:40;2.65;;;1.30;;
13685;SDS011;6915;48.296;8.874;2023-08-01T11:16:15;1.75;;;1.23;;
13685;SDS011;6915;48.296;8.874;2023-08-01T11:18:45;1.83;;;1.50;;
13685;SDS011;6915;48.296;8.874;2023-08-01T11:21:23;1.25;;;1.15;;
13685;SDS011;6915;48.296;8.874;2023-08-01T11:23:53;3.20;;;1.42;;
13685;SDS011;6915;48.296;8.874;2023-08-01T11:26:22;1.65;;;1.33;;
13685;SDS011;6915;48.296;8.874;2023-08-01T11:28:51;2.08;;;1.30;;
13685;SDS011;6915;48.296;8.874;2023-08-01T11:31:20;2.60;;;1.08;;
13685;SDS011;6915;48.296;8.874;2023-08-01T11:33:54;1.00;;;0.70;;
13685;SDS011;6915;48.296;8.874;2023-08-01T11:36:26;0.73;;;0.50;;
13685;SDS011;6915;48.296;8.874;2023-08-01T11:38:56;1.50;;;0.70;;
13685;SDS011;6915;48.296;8.874;2023-08-01T11:41:26;0.90;;;0.60;;
13685;SDS011;6915;48.296;8.874;2023-08-01T11:44:01;2.13;;;0.50;;
13685;SDS011;6915;48.296;8.874;2023-08-01T11:46:31;2.67;;;0.80;;
13685;SDS011;6915;48.296;8.874;2023-08-01T11:49:04;1.15;;;0.60;;
13685;SDS011;6915;48.296;8.874;2023-08-01T11:51:40;1.02;;;0.73;;
13685;SDS011;6915;48.296;8.874;2023-08-01T11:54:11;1.23;;;0.80;;
13685;SDS011;6915;48.296;8.874;2023-08-01T11:56:40;0.98;;;0.60;;
13685;SDS011;6915;48.296;8.874;2023-08-01T11:59:10;1.65;;;0.90;;
13685;SDS011;6915;48.296;8.874;2023-08-01T12:04:46;2.85;;;0.60;;
13685;SDS011;6915;48.296;8.874;2023-08-01T12:07:16;1.88;;;0.50;;
13685;SDS011;6915;48.296;8.874;2023-08-01T12:09:54;2.08;;;0.60;;
13685;SDS011;6915;48.296;8.874;2023-08-01T12:12:22;2.30;;;0.65;;
13685;SDS011;6915;48.296;8.874;2023-08-01T12:14:52;0.60;;;0.60;;
13685;SDS011;6915;48.296;8.874;2023-08-01T12:17:22;0.90;;;0.60;;
13685;SDS011;6915;48.296;8.874;2023-08-01T12:19:51;0.70;;;0.70;;
13685;SDS011;6915;48.296;8.874;2023-08-01T12:22:21;1.02;;;0.55;;
13685;SDS011;6915;48.296;8.874;2023-08-01T12:24:50;0.63;;;0.63;;
13685;SDS011;6915;48.296;8.874;2023-08-01T12:27:19;1.17;;;0.57;;
13685;SDS011;6915;48.296;8.874;2023-08-01T12:29:47;0.68;;;0.60;;
13685;SDS011;6915;48.296;8.874;2023-08-01T12:32:16;0.88;;;0.80;;
13685;SDS011;6915;48.296;8.874;2023-08-01T12:34:44;1.23;;;0.70;;
13685;SDS011;6915;48.296;8.874;2023-08-01T12:37:13;1.45;;;0.57;;
13685;SDS011;6915;48.296;8.874;2023-08-01T12:39:43;2.38;;;0.70;;
13685;SDS011;6915;48.296;8.874;2023-08-01T12:42:12;1.50;;;0.60;;
13685;SDS011;6915;48.296;8.874;2023-08-01T12:44:40;0.80;;;0.70;;
13685;SDS011;6915;48.296;8.874;2023-08-01T12:47:09;0.90;;;0.60;;
13685;SDS011;6915;48.296;8.874;2023-08-01T12:49:37;1.35;;;0.60;;
13685;SDS011;6915;48.296;8.874;2023-08-01T12:52:06;0.82;;;0.60;;
13685;SDS011;6915;48.296;8.874;2023-08-01T12:54:35;1.15;;;0.75;;
13685;SDS011;6915;48.296;8.874;2023-08-01T12:57:05;2.25;;;0.80;;
13685;SDS011;6915;48.296;8.874;2023-08-01T12:59:34;1.63;;;0.47;;
13685;SDS011;6915;48.296;8.874;2023-08-01T13:02:03;0.60;;;0.60;;
13685;SDS011;6915;48.296;8.874;2023-08-01T13:04:33;1.50;;;0.70;;
13685;SDS011;6915;48.296;8.874;2023-08-01T13:07:02;2.55;;;0.68;;
13685;SDS011;6915;48.296;8.874;2023-08-01T13:09:31;0.50;;;0.50;;
13685;SDS011;6915;48.296;8.874;2023-08-01T13:12:00;1.58;;;0.50;;
13685;SDS011;6915;48.296;8.874;2023-08-01T13:14:31;1.10;;;0.70;;
13685;SDS011;6915;48.296;8.874;2023-08-01T13:17:00;0.60;;;0.60;;
13685;SDS011;6915;48.296;8.874;2023-08-01T13:19:29;0.63;;;0.43;;
13685;SDS011;6915;48.296;8.874;2023-08-01T13:21:58;0.60;;;0.60;;
13685;SDS011;6915;48.296;8.874;2023-08-01T13:24:27;2.83;;;0.57;;
13685;SDS011;6915;48.296;8.874;2023-08-01T13:26:56;0.52;;;0.50;;
13685;SDS011;6915;48.296;8.874;2023-08-01T13:29:25;0.50;;;0.50;;
13685;SDS011;6915;48.296;8.874;2023-08-01T13:31:55;1.15;;;0.50;;
13685;SDS011;6915;48.296;8.874;2023-08-01T13:34:24;0.50;;;0.50;;
13685;SDS011;6915;48.296;8.874;2023-08-01T13:36:53;0.60;;;0.57;;
13685;SDS011;6915;48.296;8.874;2023-08-01T13:39:22;2.30;;;0.50;;
13685;SDS011;6915;48.296;8.874;2023-08-01T13:41:50;1.17;;;0.65;;
13685;SDS011;6915;48.296;8.874;2023-08-01T13:44:19;0.75;;;0.47;;
13685;SDS011;6915;48.296;8.874;2023-08-01T13:46:47;1.85;;;0.40;;
13685;SDS011;6915;48.296;8.874;2023-08-01T13:49:17;0.75;;;0.75;;
13685;SDS011;6915;48.296;8.874;2023-08-01T13:51:46;0.65;;;0.65;;
13685;SDS011;6915;48.296;8.874;2023-08-01T13:54:15;0.70;;;0.60;;
13685;SDS011;6915;48.296;8.874;2023-08-01T13:56:43;1.65;;;0.73;;
13685;SDS011;6915;48.296;8.874;2023-08-01T13:59:12;1.70;;;0.63;;
13685;SDS011;6915;48.296;8.874;2023-08-01T14:01:40;0.98;;;0.70;;
13685;SDS011;6915;48.296;8.874;2023-08-01T14:04:09;0.60;;;0.60;;
13685;SDS011;6915;48.296;8.874;2023-08-01T14:06:40;1.98;;;0.77;;
13685;SDS011;6915;48.296;8.874;2023-08-01T14:09:09;1.25;;;0.80;;
13685;SDS011;6915;48.296;8.874;2023-08-01T14:11:38;1.45;;;0.80;;
13685;SDS011;6915;48.296;8.874;2023-08-01T14:14:07;2.65;;;0.63;;
13685;SDS011;6915;48.296;8.874;2023-08-01T14:16:36;2.40;;;0.70;;
13685;SDS011;6915;48.296;8.874;2023-08-01T14:19:04;0.50;;;0.50;;
13685;SDS011;6915;48.296;8.874;2023-08-01T14:21:33;0.77;;;0.60;;
13685;SDS011;6915;48.296;8.874;2023-08-01T14:24:03;2.25;;;0.60;;
13685;SDS011;6915;48.296;8.874;2023-08-01T14:26:33;0.82;;;0.60;;
13685;SDS011;6915;48.296;8.874;2023-08-01T14:29:01;1.20;;;0.80;;
13685;SDS011;6915;48.296;8.874;2023-08-01T14:31:29;0.50;;;0.50;;
13685;SDS011;6915;48.296;8.874;2023-08-01T14:33:58;2.80;;;0.60;;
13685;SDS011;6915;48.296;8.874;2023-08-01T14:36:26;1.75;;;0.60;;
13685;SDS011;6915;48.296;8.874;2023-08-01T14:38:55;0.60;;;0.60;;
13685;SDS011;6915;48.296;8.874;2023-08-01T14:41:25;0.77;;;0.60;;
13685;SDS011;6915;48.296;8.874;2023-08-01T14:43:53;2.22;;;0.75;;
13685;SDS011;6915;48.296;8.874;2023-08-01T14:46:22;0.98;;;0.60;;
13685;SDS011;6915;48.296;8.874;2023-08-01T14:48:50;2.22;;;0.60;;
13685;SDS011;6915;48.296;8.874;2023-08-01T14:51:19;0.80;;;0.80;;
13685;SDS011;6915;48.296;8.874;2023-08-01T14:53:47;1.42;;;0.90;;
13685;SDS011;6915;48.296;8.874;2023-08-01T14:56:17;0.90;;;0.55;;
13685;SDS011;6915;48.296;8.874;2023-08-01T14:58:47;2.05;;;0.60;;
13685;SDS011;6915;48.296;8.874;2023-08-01T15:01:16;2.33;;;0.90;;
13685;SDS011;6915;48.296;8.874;2023-08-01T15:03:45;0.73;;;0.63;;
13685;SDS011;6915;48.296;8.874;2023-08-01T15:06:13;0.90;;;0.70;;
13685;SDS011;6915;48.296;8.874;2023-08-01T15:08:42;0.70;;;0.60;;
13685;SDS011;6915;48.296;8.874;2023-08-01T15:11:10;0.70;;;0.70;;
13685;SDS011;6915;48.296;8.874;2023-08-01T15:13:39;0.77;;;0.77;;
13685;SDS011;6915;48.296;8.874;2023-08-01T15:16:10;0.60;;;0.60;;
13685;SDS011;6915;48.296;8.874;2023-08-01T15:18:39;1.05;;;0.82;;
13685;SDS011;6915;48.296;8.874;2023-08-01T15:21:08;1.20;;;0.80;;
13685;SDS011;6915;48.296;8.874;2023-08-01T15:23:36;1.42;;;0.80;;
13685;SDS011;6915;48.296;8.874;2023-08-01T15:26:05;1.23;;;0.80;;
13685;SDS011;6915;48.296;8.874;2023-08-01T15:28:33;1.33;;;0.70;;
13685;SDS011;6915;48.296;8.874;2023-08-01T15:31:02;1.23;;;0.70;;
13685;SDS011;6915;48.296;8.874;2023-08-01T15:33:32;1.63;;;0.80;;
13685;SDS011;6915;48.296;8.874;2023-08-01T15:36:03;0.82;;;0.80;;
13685;SDS011;6915;48.296;8.874;2023-08-01T15:38:34;0.73;;;0.70;;
13685;SDS011;6915;48.296;8.874;2023-08-01T15:41:03;0.70;;;0.70;;
13685;SDS011;6915;48.296;8.874;2023-08-01T15:43:33;0.70;;;0.70;;
13685;SDS011;6915;48.296;8.874;2023-08-01T15:46:05;0.65;;;0.60;;
13685;SDS011;6915;48.296;8.874;2023-08-01T15:48:36;0.70;;;0.63;;
13685;SDS011;6915;48.296;8.874;2023-08-01T15:51:05;1.85;;;0.95;;
13685;SDS011;6915;48.296;8.874;2023-08-01T15:53:36;0.75;;;0.60;;
13685;SDS011;6915;48.296;8.874;2023-08-01T15:56:06;0.75;;;0.75;;
13685;SDS011;6915;48.296;8.874;2023-08-01T15:58:35;0.68;;;0.68;;
13685;SDS011;6915;48.296;8.874;2023-08-01T16:01:04;0.80;;;0.80;;
13685;SDS011;6915;48.296;8.874;2023-08-01T16:03:34;2.22;;;1.00;;
13685;SDS011;6915;48.296;8.874;2023-08-01T16:06:05;0.88;;;0.82;;
13685;SDS011;6915;48.296;8.874;2023-08-01T16:08:34;0.82;;;0.82;;
13685;SDS011;6915;48.296;8.874;2023-08-01T16:11:03;0.77;;;0.70;;
13685;SDS011;6915;48.296;8.874;2023-08-01T16:13:32;1.08;;;0.80;;
13685;SDS011;6915;48.296;8.874;2023-08-01T16:16:01;0.90;;;0.90;;
13685;SDS011;6915;48.296;8.874;2023-08-01T16:18:30;1.35;;;0.90;;
13685;SDS011;6915;48.296;8.874;2023-08-01T16:21:00;0.85;;;0.85;;
13685;SDS011;6915;48.296;8.874;2023-08-01T16:23:29;1.15;;;0.98;;
13685;SDS011;6915;48.296;8.874;2023-08-01T16:25:58;1.80;;;0.82;;
13685;SDS011;6915;48.296;8.874;2023-08-01T16:28:29;1.05;;;0.88;;
13685;SDS011;6915;48.296;8.874;2023-08-01T16:31:00;0.80;;;0.70;;
13685;SDS011;6915;48.296;8.874;2023-08-01T16:33:31;0.55;;;0.55;;
13685;SDS011;6915;48.296;8.874;2023-08-01T16:36:02;0.80;;;0.80;;
13685;SDS011;6915;48.296;8.874;2023-08-01T16:38:31;1.20;;;1.00;;
13685;SDS011;6915;48.296;8.874;2023-08-01T16:41:00;1.23;;;1.00;;